UAE67M YMML-OMDB
Flight info
| Callsign | UAE67M |
|---|---|
| Flight time | N/A |
| Altitude | 28000 |
| Route | PEDNI H345 AD A585 VEPOK/N0492F300 A585 ABTOD DCT 30S130E 28S127E DCT DALPA DCT KA DCT 16S110E/N0510F320 12S103E 09S097E 08S095E 06S091E/N0502F340 DCT KADAP DCT PIBOR DCT BIBGO L894 GOLEM/N0493F360 L894 KITAL P570 ITURA M762 VAXAS/N0464F240 M762 MIVEK P574 IMPED |
| Aircraft | B77W/H-SDE1E2E3FGHIJ2J3J4J5M1RWXY/LB1D1 |
Departure
| Time | 2026-05-06 11:43 |
|---|---|
| Airport | Melbourne Airport (YMML) |
Arrival
| Time | N/A |
|---|---|
| Airport | Dubai International Airport (OMDB) |
| Time | Latitude | Longitude | Altitude | Speed | Heading |
|---|---|---|---|---|---|
| 2026-05-06 11:20 | -37.66726 | 144.84640 | 403 ft | 0 kts | 172° |
| 2026-05-06 11:30 | -37.66721 | 144.84639 | 402 ft | 2 kts | 171° |
| 2026-05-06 11:30 | -37.66705 | 144.84637 | 402 ft | 2 kts | 173° |
| 2026-05-06 11:31 | -37.66688 | 144.84635 | 403 ft | 2 kts | 176° |
| 2026-05-06 11:31 | -37.66672 | 144.84634 | 403 ft | 2 kts | 182° |
| 2026-05-06 11:31 | -37.66655 | 144.84637 | 400 ft | 2 kts | 210° |
| 2026-05-06 11:31 | -37.66648 | 144.84653 | 399 ft | 2 kts | 261° |
| 2026-05-06 11:32 | -37.66645 | 144.84674 | 403 ft | 2 kts | 262° |
| 2026-05-06 11:32 | -37.66645 | 144.84679 | 404 ft | 0 kts | 261° |
| 2026-05-06 11:35 | -37.66648 | 144.84650 | 401 ft | 5 kts | 262° |
| 2026-05-06 11:35 | -37.66655 | 144.84591 | 399 ft | 7 kts | 262° |
| 2026-05-06 11:35 | -37.66664 | 144.84518 | 402 ft | 9 kts | 261° |
| 2026-05-06 11:35 | -37.66673 | 144.84437 | 402 ft | 9 kts | 262° |
| 2026-05-06 11:36 | -37.66684 | 144.84345 | 402 ft | 11 kts | 262° |
| 2026-05-06 11:36 | -37.66694 | 144.84253 | 398 ft | 11 kts | 261° |
| 2026-05-06 11:36 | -37.66740 | 144.84185 | 396 ft | 11 kts | 191° |
| 2026-05-06 11:36 | -37.66820 | 144.84197 | 393 ft | 12 kts | 172° |
| 2026-05-06 11:37 | -37.66903 | 144.84212 | 393 ft | 12 kts | 172° |
| 2026-05-06 11:37 | -37.66992 | 144.84229 | 391 ft | 16 kts | 172° |
| 2026-05-06 11:37 | -37.67107 | 144.84250 | 388 ft | 17 kts | 171° |
| 2026-05-06 11:37 | -37.67222 | 144.84272 | 386 ft | 17 kts | 171° |
| 2026-05-06 11:38 | -37.67335 | 144.84294 | 384 ft | 17 kts | 172° |
| 2026-05-06 11:38 | -37.67450 | 144.84314 | 381 ft | 17 kts | 172° |
| 2026-05-06 11:38 | -37.67564 | 144.84336 | 378 ft | 17 kts | 171° |
| 2026-05-06 11:38 | -37.67679 | 144.84359 | 375 ft | 17 kts | 172° |
| 2026-05-06 11:39 | -37.67794 | 144.84379 | 374 ft | 17 kts | 172° |
| 2026-05-06 11:39 | -37.67911 | 144.84401 | 367 ft | 17 kts | 171° |
| 2026-05-06 11:39 | -37.68028 | 144.84423 | 364 ft | 17 kts | 171° |
| 2026-05-06 11:39 | -37.68145 | 144.84444 | 361 ft | 17 kts | 172° |
| 2026-05-06 11:40 | -37.68262 | 144.84467 | 359 ft | 17 kts | 171° |
| 2026-05-06 11:40 | -37.68376 | 144.84444 | 359 ft | 17 kts | 210° |
| 2026-05-06 11:40 | -37.68460 | 144.84374 | 358 ft | 10 kts | 213° |
| 2026-05-06 11:40 | -37.68512 | 144.84328 | 356 ft | 9 kts | 219° |
| 2026-05-06 11:41 | -37.68548 | 144.84264 | 353 ft | 9 kts | 247° |
| 2026-05-06 11:41 | -37.68559 | 144.84186 | 353 ft | 9 kts | 262° |
| 2026-05-06 11:41 | -37.68555 | 144.84109 | 353 ft | 9 kts | 306° |
| 2026-05-06 11:41 | -37.68495 | 144.84084 | 359 ft | 9 kts | 351° |
| 2026-05-06 11:42 | -37.68374 | 144.84060 | 357 ft | 42 kts | 351° |
| 2026-05-06 11:42 | -37.67822 | 144.83956 | 363 ft | 118 kts | 352° |
| 2026-05-06 11:42 | -37.66769 | 144.83760 | 401 ft | 187 kts | 351° |
| 2026-05-06 11:42 | -37.65353 | 144.83517 | 796 ft | 215 kts | 348° |
| 2026-05-06 11:43 | -37.63861 | 144.83233 | 1682 ft | 225 kts | 344° |
| 2026-05-06 11:43 | -37.62246 | 144.82913 | 2073 ft | 241 kts | 345° |
| 2026-05-06 11:43 | -37.60549 | 144.82589 | 2471 ft | 252 kts | 345° |
| 2026-05-06 11:44 | -37.56982 | 144.81513 | 3088 ft | 264 kts | 317° |
| 2026-05-06 11:44 | -37.55837 | 144.79822 | 3634 ft | 251 kts | 290° |
| 2026-05-06 11:44 | -37.55242 | 144.77786 | 4225 ft | 250 kts | 282° |
| 2026-05-06 11:44 | -37.54748 | 144.75697 | 4935 ft | 249 kts | 281° |
| 2026-05-06 11:45 | -37.54276 | 144.73629 | 5589 ft | 249 kts | 282° |
| 2026-05-06 11:45 | -37.53801 | 144.71526 | 6226 ft | 251 kts | 283° |
| 2026-05-06 11:45 | -37.53321 | 144.69407 | 6795 ft | 252 kts | 284° |
| 2026-05-06 11:45 | -37.52838 | 144.67277 | 7375 ft | 254 kts | 284° |
| 2026-05-06 11:46 | -37.52352 | 144.65136 | 7992 ft | 254 kts | 285° |
| 2026-05-06 11:46 | -37.51862 | 144.62990 | 8584 ft | 256 kts | 285° |
| 2026-05-06 11:46 | -37.51369 | 144.60834 | 9183 ft | 257 kts | 286° |
| 2026-05-06 11:46 | -37.50872 | 144.58669 | 9793 ft | 258 kts | 286° |
| 2026-05-06 11:47 | -37.50378 | 144.56522 | 10356 ft | 260 kts | 286° |
| 2026-05-06 11:47 | -37.49860 | 144.54278 | 10550 ft | 276 kts | 286° |
| 2026-05-06 11:47 | -37.49309 | 144.51894 | 10727 ft | 293 kts | 286° |
| 2026-05-06 11:47 | -37.48722 | 144.49353 | 10897 ft | 310 kts | 286° |
| 2026-05-06 11:48 | -37.48112 | 144.46716 | 11332 ft | 317 kts | 286° |
| 2026-05-06 11:48 | -37.47490 | 144.44032 | 11941 ft | 321 kts | 285° |
| 2026-05-06 11:48 | -37.46864 | 144.41339 | 12701 ft | 320 kts | 285° |
| 2026-05-06 11:48 | -37.46241 | 144.38664 | 13539 ft | 318 kts | 285° |
| 2026-05-06 11:49 | -37.45621 | 144.36001 | 14327 ft | 316 kts | 285° |
| 2026-05-06 11:49 | -37.45001 | 144.33340 | 14939 ft | 318 kts | 285° |
| 2026-05-06 11:49 | -37.44384 | 144.30688 | 15484 ft | 322 kts | 285° |
| 2026-05-06 11:49 | -37.43749 | 144.27971 | 16057 ft | 325 kts | 285° |
| 2026-05-06 11:50 | -37.43111 | 144.25244 | 16652 ft | 327 kts | 286° |
| 2026-05-06 11:50 | -37.42467 | 144.22493 | 17242 ft | 329 kts | 286° |
| 2026-05-06 11:50 | -37.41818 | 144.19725 | 17832 ft | 331 kts | 286° |
| 2026-05-06 11:50 | -37.41163 | 144.16932 | 18425 ft | 334 kts | 286° |
| 2026-05-06 11:51 | -37.40502 | 144.14124 | 18929 ft | 336 kts | 286° |
| 2026-05-06 11:51 | -37.39838 | 144.11298 | 19449 ft | 338 kts | 286° |
| 2026-05-06 11:51 | -37.39169 | 144.08459 | 19946 ft | 340 kts | 286° |
| 2026-05-06 11:51 | -37.38496 | 144.05603 | 20439 ft | 342 kts | 286° |
| 2026-05-06 11:52 | -37.37818 | 144.02729 | 20940 ft | 344 kts | 286° |
| 2026-05-06 11:52 | -37.37145 | 143.99878 | 21412 ft | 346 kts | 286° |
| 2026-05-06 11:52 | -37.36457 | 143.96973 | 21894 ft | 348 kts | 285° |
| 2026-05-06 11:52 | -37.35763 | 143.94044 | 22354 ft | 351 kts | 285° |
| 2026-05-06 11:53 | -37.35064 | 143.91098 | 22821 ft | 353 kts | 285° |
| 2026-05-06 11:53 | -37.34361 | 143.88134 | 23279 ft | 355 kts | 285° |
| 2026-05-06 11:53 | -37.33651 | 143.85147 | 23711 ft | 358 kts | 285° |
| 2026-05-06 11:53 | -37.32936 | 143.82144 | 24075 ft | 360 kts | 285° |
| 2026-05-06 11:54 | -37.32214 | 143.79116 | 24411 ft | 363 kts | 285° |
| 2026-05-06 11:54 | -37.31487 | 143.76071 | 24741 ft | 366 kts | 285° |
| 2026-05-06 11:54 | -37.30753 | 143.72999 | 25047 ft | 368 kts | 285° |
| 2026-05-06 11:54 | -37.30013 | 143.69905 | 25375 ft | 371 kts | 285° |
| 2026-05-06 11:55 | -37.29277 | 143.66832 | 25683 ft | 374 kts | 285° |
| 2026-05-06 11:55 | -37.28524 | 143.63696 | 26000 ft | 376 kts | 285° |
| 2026-05-06 11:55 | -37.27766 | 143.60539 | 26290 ft | 379 kts | 285° |
| 2026-05-06 11:55 | -37.27002 | 143.57360 | 26575 ft | 382 kts | 285° |